sensor_id;sensor_type;location;lat;lon;timestamp;P1;durP1;ratioP1;P2;durP2;ratioP2
32535;SDS011;18974;50.838;4.636;2023-06-22T00:00:47;9.98;;;6.20;;
32535;SDS011;18974;50.838;4.636;2023-06-22T00:03:13;8.18;;;6.50;;
32535;SDS011;18974;50.838;4.636;2023-06-22T00:05:39;12.10;;;7.13;;
32535;SDS011;18974;50.838;4.636;2023-06-22T00:08:05;9.70;;;6.60;;
32535;SDS011;18974;50.838;4.636;2023-06-22T00:10:30;8.85;;;6.10;;
32535;SDS011;18974;50.838;4.636;2023-06-22T00:12:56;6.82;;;5.85;;
32535;SDS011;18974;50.838;4.636;2023-06-22T00:15:22;9.00;;;6.40;;
32535;SDS011;18974;50.838;4.636;2023-06-22T00:17:48;9.77;;;6.88;;
32535;SDS011;18974;50.838;4.636;2023-06-22T00:20:15;9.75;;;6.97;;
32535;SDS011;18974;50.838;4.636;2023-06-22T00:22:42;8.90;;;5.93;;
32535;SDS011;18974;50.838;4.636;2023-06-22T00:25:08;10.00;;;6.53;;
32535;SDS011;18974;50.838;4.636;2023-06-22T00:27:34;9.55;;;6.43;;
32535;SDS011;18974;50.838;4.636;2023-06-22T00:30:00;9.90;;;6.18;;
32535;SDS011;18974;50.838;4.636;2023-06-22T00:32:26;8.27;;;6.50;;
32535;SDS011;18974;50.838;4.636;2023-06-22T00:34:51;9.00;;;6.70;;
32535;SDS011;18974;50.838;4.636;2023-06-22T00:37:17;7.72;;;6.28;;
32535;SDS011;18974;50.838;4.636;2023-06-22T00:39:43;10.05;;;6.68;;
32535;SDS011;18974;50.838;4.636;2023-06-22T00:42:08;11.20;;;7.13;;
32535;SDS011;18974;50.838;4.636;2023-06-22T00:44:35;10.95;;;7.03;;
32535;SDS011;18974;50.838;4.636;2023-06-22T00:47:01;9.23;;;6.80;;
32535;SDS011;18974;50.838;4.636;2023-06-22T00:49:27;10.32;;;7.20;;
32535;SDS011;18974;50.838;4.636;2023-06-22T00:51:53;9.00;;;6.60;;
32535;SDS011;18974;50.838;4.636;2023-06-22T00:54:20;10.43;;;6.53;;
32535;SDS011;18974;50.838;4.636;2023-06-22T00:56:50;11.75;;;7.20;;
32535;SDS011;18974;50.838;4.636;2023-06-22T00:59:20;13.98;;;6.78;;
32535;SDS011;18974;50.838;4.636;2023-06-22T01:01:46;9.10;;;7.25;;
32535;SDS011;18974;50.838;4.636;2023-06-22T01:04:12;9.15;;;6.72;;
32535;SDS011;18974;50.838;4.636;2023-06-22T01:06:45;10.45;;;7.00;;
32535;SDS011;18974;50.838;4.636;2023-06-22T01:09:20;9.65;;;7.03;;
32535;SDS011;18974;50.838;4.636;2023-06-22T01:11:57;10.70;;;7.60;;
32535;SDS011;18974;50.838;4.636;2023-06-22T01:16:52;9.77;;;6.78;;
32535;SDS011;18974;50.838;4.636;2023-06-22T01:20:04;10.68;;;7.57;;
32535;SDS011;18974;50.838;4.636;2023-06-22T01:22:13;10.95;;;7.53;;
32535;SDS011;18974;50.838;4.636;2023-06-22T01:27:28;11.70;;;7.32;;
32535;SDS011;18974;50.838;4.636;2023-06-22T01:30:06;9.77;;;7.30;;
32535;SDS011;18974;50.838;4.636;2023-06-22T01:32:36;10.00;;;7.38;;
32535;SDS011;18974;50.838;4.636;2023-06-22T01:35:04;11.60;;;7.30;;
32535;SDS011;18974;50.838;4.636;2023-06-22T01:37:32;10.45;;;7.40;;
32535;SDS011;18974;50.838;4.636;2023-06-22T01:39:59;10.25;;;7.43;;
32535;SDS011;18974;50.838;4.636;2023-06-22T01:42:27;8.43;;;6.97;;
32535;SDS011;18974;50.838;4.636;2023-06-22T01:44:53;11.00;;;7.47;;
32535;SDS011;18974;50.838;4.636;2023-06-22T01:47:20;9.80;;;7.80;;
32535;SDS011;18974;50.838;4.636;2023-06-22T01:49:47;12.70;;;7.63;;
32535;SDS011;18974;50.838;4.636;2023-06-22T01:52:13;9.30;;;7.57;;
32535;SDS011;18974;50.838;4.636;2023-06-22T01:54:40;10.63;;;7.68;;
32535;SDS011;18974;50.838;4.636;2023-06-22T01:57:06;10.57;;;7.47;;
32535;SDS011;18974;50.838;4.636;2023-06-22T01:59:33;11.27;;;7.57;;
32535;SDS011;18974;50.838;4.636;2023-06-22T02:02:04;9.85;;;7.30;;
32535;SDS011;18974;50.838;4.636;2023-06-22T02:04:48;10.70;;;7.53;;
32535;SDS011;18974;50.838;4.636;2023-06-22T02:07:29;10.45;;;7.40;;
32535;SDS011;18974;50.838;4.636;2023-06-22T02:09:59;8.52;;;6.90;;
32535;SDS011;18974;50.838;4.636;2023-06-22T02:12:27;9.68;;;7.47;;
32535;SDS011;18974;50.838;4.636;2023-06-22T02:14:54;10.52;;;7.65;;
32535;SDS011;18974;50.838;4.636;2023-06-22T02:17:20;9.88;;;7.40;;
32535;SDS011;18974;50.838;4.636;2023-06-22T02:19:46;10.07;;;7.38;;
32535;SDS011;18974;50.838;4.636;2023-06-22T02:22:12;12.07;;;7.93;;
32535;SDS011;18974;50.838;4.636;2023-06-22T02:24:38;11.57;;;7.55;;
32535;SDS011;18974;50.838;4.636;2023-06-22T02:27:04;10.98;;;7.65;;
32535;SDS011;18974;50.838;4.636;2023-06-22T02:29:32;9.63;;;7.63;;
32535;SDS011;18974;50.838;4.636;2023-06-22T02:31:57;10.95;;;7.57;;
32535;SDS011;18974;50.838;4.636;2023-06-22T02:34:23;11.00;;;7.97;;
32535;SDS011;18974;50.838;4.636;2023-06-22T02:36:49;13.77;;;7.53;;
32535;SDS011;18974;50.838;4.636;2023-06-22T02:39:22;12.30;;;7.40;;
32535;SDS011;18974;50.838;4.636;2023-06-22T02:41:49;10.25;;;7.30;;
32535;SDS011;18974;50.838;4.636;2023-06-22T02:44:16;11.70;;;7.38;;
32535;SDS011;18974;50.838;4.636;2023-06-22T02:46:42;8.93;;;6.93;;
32535;SDS011;18974;50.838;4.636;2023-06-22T02:49:07;11.85;;;7.70;;
32535;SDS011;18974;50.838;4.636;2023-06-22T02:51:33;10.23;;;7.00;;
32535;SDS011;18974;50.838;4.636;2023-06-22T02:53:59;13.85;;;7.80;;
32535;SDS011;18974;50.838;4.636;2023-06-22T02:56:25;9.43;;;7.35;;
32535;SDS011;18974;50.838;4.636;2023-06-22T02:58:51;10.80;;;7.68;;
32535;SDS011;18974;50.838;4.636;2023-06-22T03:01:17;10.80;;;7.28;;
32535;SDS011;18974;50.838;4.636;2023-06-22T03:03:49;12.73;;;8.65;;
32535;SDS011;18974;50.838;4.636;2023-06-22T03:06:15;11.02;;;7.75;;
32535;SDS011;18974;50.838;4.636;2023-06-22T03:08:40;10.85;;;8.30;;
32535;SDS011;18974;50.838;4.636;2023-06-22T03:11:06;12.15;;;8.65;;
32535;SDS011;18974;50.838;4.636;2023-06-22T03:13:33;10.80;;;8.35;;
32535;SDS011;18974;50.838;4.636;2023-06-22T03:15:58;12.43;;;8.20;;
32535;SDS011;18974;50.838;4.636;2023-06-22T03:18:24;9.77;;;8.00;;
32535;SDS011;18974;50.838;4.636;2023-06-22T03:20:50;12.43;;;8.35;;
32535;SDS011;18974;50.838;4.636;2023-06-22T03:23:15;13.05;;;8.55;;
32535;SDS011;18974;50.838;4.636;2023-06-22T03:25:41;12.88;;;9.38;;
32535;SDS011;18974;50.838;4.636;2023-06-22T03:28:09;10.73;;;8.85;;
32535;SDS011;18974;50.838;4.636;2023-06-22T03:30:35;10.63;;;7.88;;
32535;SDS011;18974;50.838;4.636;2023-06-22T03:33:01;10.80;;;7.90;;
32535;SDS011;18974;50.838;4.636;2023-06-22T03:35:26;15.68;;;8.10;;
32535;SDS011;18974;50.838;4.636;2023-06-22T03:37:53;11.13;;;8.85;;
32535;SDS011;18974;50.838;4.636;2023-06-22T03:40:18;9.65;;;7.82;;
32535;SDS011;18974;50.838;4.636;2023-06-22T03:42:45;12.25;;;9.02;;
32535;SDS011;18974;50.838;4.636;2023-06-22T03:45:11;13.50;;;8.38;;
32535;SDS011;18974;50.838;4.636;2023-06-22T03:47:36;13.10;;;8.05;;
32535;SDS011;18974;50.838;4.636;2023-06-22T03:50:02;10.10;;;8.00;;
32535;SDS011;18974;50.838;4.636;2023-06-22T03:52:31;11.95;;;8.30;;
32535;SDS011;18974;50.838;4.636;2023-06-22T03:54:57;12.07;;;8.88;;
32535;SDS011;18974;50.838;4.636;2023-06-22T03:57:23;13.90;;;8.63;;
32535;SDS011;18974;50.838;4.636;2023-06-22T03:59:48;10.48;;;7.75;;
32535;SDS011;18974;50.838;4.636;2023-06-22T04:02:14;11.25;;;7.70;;
32535;SDS011;18974;50.838;4.636;2023-06-22T04:04:40;13.02;;;8.50;;
32535;SDS011;18974;50.838;4.636;2023-06-22T04:07:05;11.75;;;8.23;;
32535;SDS011;18974;50.838;4.636;2023-06-22T04:09:31;16.40;;;9.15;;
32535;SDS011;18974;50.838;4.636;2023-06-22T04:11:57;12.32;;;8.98;;
32535;SDS011;18974;50.838;4.636;2023-06-22T04:14:22;12.30;;;9.10;;
32535;SDS011;18974;50.838;4.636;2023-06-22T04:16:48;15.85;;;9.30;;
32535;SDS011;18974;50.838;4.636;2023-06-22T04:19:13;11.73;;;8.82;;
32535;SDS011;18974;50.838;4.636;2023-06-22T04:21:42;12.55;;;9.65;;
32535;SDS011;18974;50.838;4.636;2023-06-22T04:24:09;12.45;;;8.45;;
32535;SDS011;18974;50.838;4.636;2023-06-22T04:26:36;17.10;;;10.35;;
32535;SDS011;18974;50.838;4.636;2023-06-22T04:29:05;14.77;;;9.85;;
32535;SDS011;18974;50.838;4.636;2023-06-22T04:31:33;16.10;;;9.80;;
32535;SDS011;18974;50.838;4.636;2023-06-22T04:34:02;15.15;;;10.52;;
32535;SDS011;18974;50.838;4.636;2023-06-22T04:36:35;15.38;;;10.80;;
32535;SDS011;18974;50.838;4.636;2023-06-22T04:39:06;13.68;;;9.48;;
32535;SDS011;18974;50.838;4.636;2023-06-22T04:41:34;12.50;;;9.70;;
32535;SDS011;18974;50.838;4.636;2023-06-22T04:44:12;16.33;;;9.65;;
32535;SDS011;18974;50.838;4.636;2023-06-22T04:46:51;13.52;;;9.80;;
32535;SDS011;18974;50.838;4.636;2023-06-22T04:49:25;12.45;;;9.45;;
32535;SDS011;18974;50.838;4.636;2023-06-22T04:51:57;18.58;;;10.85;;
32535;SDS011;18974;50.838;4.636;2023-06-22T04:54:24;17.20;;;9.98;;
32535;SDS011;18974;50.838;4.636;2023-06-22T04:56:49;14.00;;;9.95;;
32535;SDS011;18974;50.838;4.636;2023-06-22T04:59:21;16.92;;;10.25;;
32535;SDS011;18974;50.838;4.636;2023-06-22T05:01:58;17.42;;;10.65;;
32535;SDS011;18974;50.838;4.636;2023-06-22T05:04:25;16.98;;;10.55;;
32535;SDS011;18974;50.838;4.636;2023-06-22T05:06:52;15.77;;;10.15;;
32535;SDS011;18974;50.838;4.636;2023-06-22T05:09:18;17.67;;;10.38;;
32535;SDS011;18974;50.838;4.636;2023-06-22T05:11:45;13.32;;;9.25;;
32535;SDS011;18974;50.838;4.636;2023-06-22T05:14:11;18.35;;;10.63;;
32535;SDS011;18974;50.838;4.636;2023-06-22T05:16:37;11.98;;;9.00;;
32535;SDS011;18974;50.838;4.636;2023-06-22T05:19:03;18.33;;;11.02;;
32535;SDS011;18974;50.838;4.636;2023-06-22T05:21:29;16.67;;;9.65;;
32535;SDS011;18974;50.838;4.636;2023-06-22T05:23:55;15.20;;;9.88;;
32535;SDS011;18974;50.838;4.636;2023-06-22T05:26:25;15.32;;;9.88;;
32535;SDS011;18974;50.838;4.636;2023-06-22T05:28:51;15.25;;;10.30;;
32535;SDS011;18974;50.838;4.636;2023-06-22T05:31:18;17.92;;;10.57;;
32535;SDS011;18974;50.838;4.636;2023-06-22T05:33:45;22.13;;;9.65;;
32535;SDS011;18974;50.838;4.636;2023-06-22T05:36:12;12.70;;;10.23;;
32535;SDS011;18974;50.838;4.636;2023-06-22T05:38:38;16.90;;;10.07;;
32535;SDS011;18974;50.838;4.636;2023-06-22T05:41:05;15.32;;;10.52;;
32535;SDS011;18974;50.838;4.636;2023-06-22T05:43:31;20.25;;;10.88;;
32535;SDS011;18974;50.838;4.636;2023-06-22T05:45:57;16.52;;;11.57;;
32535;SDS011;18974;50.838;4.636;2023-06-22T05:48:23;13.55;;;10.90;;
32535;SDS011;18974;50.838;4.636;2023-06-22T05:50:49;16.23;;;10.32;;
32535;SDS011;18974;50.838;4.636;2023-06-22T05:53:15;15.30;;;10.95;;
32535;SDS011;18974;50.838;4.636;2023-06-22T05:55:40;17.52;;;10.90;;
32535;SDS011;18974;50.838;4.636;2023-06-22T05:58:07;13.02;;;10.25;;
32535;SDS011;18974;50.838;4.636;2023-06-22T06:00:33;14.32;;;11.05;;
32535;SDS011;18974;50.838;4.636;2023-06-22T06:02:58;21.83;;;11.27;;
32535;SDS011;18974;50.838;4.636;2023-06-22T06:05:28;15.20;;;10.00;;
32535;SDS011;18974;50.838;4.636;2023-06-22T06:07:55;17.70;;;11.00;;
32535;SDS011;18974;50.838;4.636;2023-06-22T06:10:20;18.92;;;11.68;;
32535;SDS011;18974;50.838;4.636;2023-06-22T06:12:46;14.85;;;11.23;;
32535;SDS011;18974;50.838;4.636;2023-06-22T06:15:12;21.35;;;13.65;;
32535;SDS011;18974;50.838;4.636;2023-06-22T06:17:50;19.35;;;13.13;;
32535;SDS011;18974;50.838;4.636;2023-06-22T06:20:21;15.90;;;12.65;;
32535;SDS011;18974;50.838;4.636;2023-06-22T06:22:48;15.25;;;11.65;;
32535;SDS011;18974;50.838;4.636;2023-06-22T06:25:14;15.52;;;11.60;;
32535;SDS011;18974;50.838;4.636;2023-06-22T06:27:44;18.73;;;12.57;;
32535;SDS011;18974;50.838;4.636;2023-06-22T06:30:14;16.88;;;11.90;;
32535;SDS011;18974;50.838;4.636;2023-06-22T06:32:43;16.52;;;12.10;;
32535;SDS011;18974;50.838;4.636;2023-06-22T06:35:10;18.83;;;12.40;;
32535;SDS011;18974;50.838;4.636;2023-06-22T06:37:38;14.93;;;11.45;;
32535;SDS011;18974;50.838;4.636;2023-06-22T06:40:05;16.75;;;12.98;;
32535;SDS011;18974;50.838;4.636;2023-06-22T06:42:38;17.95;;;12.70;;
32535;SDS011;18974;50.838;4.636;2023-06-22T06:45:06;17.15;;;11.70;;
32535;SDS011;18974;50.838;4.636;2023-06-22T06:47:33;15.00;;;12.13;;
32535;SDS011;18974;50.838;4.636;2023-06-22T06:49:58;20.08;;;13.98;;
32535;SDS011;18974;50.838;4.636;2023-06-22T06:52:24;23.40;;;12.68;;
32535;SDS011;18974;50.838;4.636;2023-06-22T06:54:50;17.13;;;13.25;;
32535;SDS011;18974;50.838;4.636;2023-06-22T06:57:17;19.98;;;13.07;;
32535;SDS011;18974;50.838;4.636;2023-06-22T06:59:43;24.33;;;14.07;;
32535;SDS011;18974;50.838;4.636;2023-06-22T07:02:09;17.00;;;12.70;;
32535;SDS011;18974;50.838;4.636;2023-06-22T07:04:34;19.52;;;13.90;;
32535;SDS011;18974;50.838;4.636;2023-06-22T07:07:01;27.23;;;14.43;;
32535;SDS011;18974;50.838;4.636;2023-06-22T07:09:27;26.77;;;14.52;;
32535;SDS011;18974;50.838;4.636;2023-06-22T07:11:53;16.88;;;13.20;;
32535;SDS011;18974;50.838;4.636;2023-06-22T07:14:19;25.67;;;15.15;;
32535;SDS011;18974;50.838;4.636;2023-06-22T07:16:45;21.73;;;13.75;;
32535;SDS011;18974;50.838;4.636;2023-06-22T07:19:11;22.33;;;14.32;;
32535;SDS011;18974;50.838;4.636;2023-06-22T07:21:38;19.45;;;14.20;;
32535;SDS011;18974;50.838;4.636;2023-06-22T07:24:04;18.27;;;11.57;;
32535;SDS011;18974;50.838;4.636;2023-06-22T07:26:31;16.15;;;11.52;;
32535;SDS011;18974;50.838;4.636;2023-06-22T07:28:56;20.25;;;11.60;;
32535;SDS011;18974;50.838;4.636;2023-06-22T07:31:23;19.10;;;11.23;;
32535;SDS011;18974;50.838;4.636;2023-06-22T07:33:50;18.48;;;10.82;;
32535;SDS011;18974;50.838;4.636;2023-06-22T07:36:16;12.30;;;10.25;;
32535;SDS011;18974;50.838;4.636;2023-06-22T07:38:42;13.23;;;9.48;;
32535;SDS011;18974;50.838;4.636;2023-06-22T07:41:08;14.93;;;10.55;;
32535;SDS011;18974;50.838;4.636;2023-06-22T07:43:33;12.27;;;8.88;;
32535;SDS011;18974;50.838;4.636;2023-06-22T07:46:02;13.65;;;8.77;;
32535;SDS011;18974;50.838;4.636;2023-06-22T07:48:28;16.63;;;8.95;;
32535;SDS011;18974;50.838;4.636;2023-06-22T07:50:53;11.25;;;8.82;;
32535;SDS011;18974;50.838;4.636;2023-06-22T07:53:20;12.35;;;8.95;;
32535;SDS011;18974;50.838;4.636;2023-06-22T07:55:46;15.63;;;9.00;;
32535;SDS011;18974;50.838;4.636;2023-06-22T07:58:12;17.05;;;8.35;;
32535;SDS011;18974;50.838;4.636;2023-06-22T08:00:38;10.23;;;8.32;;
32535;SDS011;18974;50.838;4.636;2023-06-22T08:03:04;12.48;;;8.77;;
32535;SDS011;18974;50.838;4.636;2023-06-22T08:05:30;11.65;;;8.60;;
32535;SDS011;18974;50.838;4.636;2023-06-22T08:07:56;11.63;;;9.30;;
32535;SDS011;18974;50.838;4.636;2023-06-22T08:10:22;14.07;;;8.80;;
32535;SDS011;18974;50.838;4.636;2023-06-22T08:12:48;11.70;;;8.70;;
32535;SDS011;18974;50.838;4.636;2023-06-22T08:15:13;16.75;;;9.52;;
32535;SDS011;18974;50.838;4.636;2023-06-22T08:17:39;11.85;;;9.13;;
32535;SDS011;18974;50.838;4.636;2023-06-22T08:20:06;11.75;;;8.40;;
32535;SDS011;18974;50.838;4.636;2023-06-22T08:22:36;12.07;;;7.90;;
32535;SDS011;18974;50.838;4.636;2023-06-22T08:25:03;15.40;;;8.85;;
32535;SDS011;18974;50.838;4.636;2023-06-22T08:27:29;14.10;;;7.85;;
32535;SDS011;18974;50.838;4.636;2023-06-22T08:29:57;10.68;;;8.25;;
32535;SDS011;18974;50.838;4.636;2023-06-22T08:32:24;16.42;;;8.15;;
32535;SDS011;18974;50.838;4.636;2023-06-22T08:34:51;15.95;;;7.97;;
32535;SDS011;18974;50.838;4.636;2023-06-22T08:37:21;12.35;;;8.23;;
32535;SDS011;18974;50.838;4.636;2023-06-22T08:39:49;8.80;;;7.60;;
32535;SDS011;18974;50.838;4.636;2023-06-22T08:42:15;14.13;;;7.97;;
32535;SDS011;18974;50.838;4.636;2023-06-22T08:44:41;13.02;;;8.07;;
32535;SDS011;18974;50.838;4.636;2023-06-22T08:47:07;8.73;;;7.47;;
32535;SDS011;18974;50.838;4.636;2023-06-22T08:49:32;10.98;;;7.88;;
32535;SDS011;18974;50.838;4.636;2023-06-22T08:51:58;15.73;;;8.00;;
32535;SDS011;18974;50.838;4.636;2023-06-22T08:54:24;12.52;;;7.20;;
32535;SDS011;18974;50.838;4.636;2023-06-22T08:56:49;10.25;;;7.68;;
32535;SDS011;18974;50.838;4.636;2023-06-22T08:59:15;15.70;;;8.02;;
32535;SDS011;18974;50.838;4.636;2023-06-22T09:01:40;18.38;;;8.73;;
32535;SDS011;18974;50.838;4.636;2023-06-22T09:04:10;16.23;;;8.80;;
32535;SDS011;18974;50.838;4.636;2023-06-22T09:06:36;14.27;;;9.88;;
32535;SDS011;18974;50.838;4.636;2023-06-22T09:09:06;19.58;;;11.13;;
32535;SDS011;18974;50.838;4.636;2023-06-22T09:11:32;13.00;;;11.18;;
32535;SDS011;18974;50.838;4.636;2023-06-22T09:13:57;16.20;;;11.57;;
32535;SDS011;18974;50.838;4.636;2023-06-22T09:16:23;16.30;;;11.18;;
32535;SDS011;18974;50.838;4.636;2023-06-22T09:18:49;19.23;;;12.45;;
32535;SDS011;18974;50.838;4.636;2023-06-22T09:21:14;18.40;;;12.68;;
32535;SDS011;18974;50.838;4.636;2023-06-22T09:23:40;16.85;;;12.63;;
32535;SDS011;18974;50.838;4.636;2023-06-22T09:26:06;19.35;;;13.07;;
32535;SDS011;18974;50.838;4.636;2023-06-22T09:28:31;18.13;;;13.88;;
32535;SDS011;18974;50.838;4.636;2023-06-22T09:30:58;17.65;;;14.10;;
32535;SDS011;18974;50.838;4.636;2023-06-22T09:33:25;21.25;;;13.75;;
32535;SDS011;18974;50.838;4.636;2023-06-22T09:35:51;18.27;;;13.60;;
32535;SDS011;18974;50.838;4.636;2023-06-22T09:38:16;19.70;;;14.98;;
32535;SDS011;18974;50.838;4.636;2023-06-22T09:40:42;21.63;;;15.00;;
32535;SDS011;18974;50.838;4.636;2023-06-22T09:43:08;19.77;;;15.25;;
32535;SDS011;18974;50.838;4.636;2023-06-22T09:45:34;32.78;;;16.38;;
32535;SDS011;18974;50.838;4.636;2023-06-22T09:47:59;19.92;;;15.50;;
32535;SDS011;18974;50.838;4.636;2023-06-22T09:50:25;26.85;;;17.50;;
32535;SDS011;18974;50.838;4.636;2023-06-22T09:52:51;24.77;;;17.80;;
32535;SDS011;18974;50.838;4.636;2023-06-22T09:55:20;22.83;;;17.38;;
32535;SDS011;18974;50.838;4.636;2023-06-22T09:57:46;38.50;;;20.02;;
32535;SDS011;18974;50.838;4.636;2023-06-22T10:00:11;29.15;;;19.60;;
32535;SDS011;18974;50.838;4.636;2023-06-22T10:02:39;36.05;;;19.27;;
32535;SDS011;18974;50.838;4.636;2023-06-22T10:05:05;26.45;;;19.80;;
32535;SDS011;18974;50.838;4.636;2023-06-22T10:07:30;30.17;;;20.20;;
32535;SDS011;18974;50.838;4.636;2023-06-22T10:09:56;26.25;;;19.00;;
32535;SDS011;18974;50.838;4.636;2023-06-22T10:12:21;30.77;;;19.20;;
32535;SDS011;18974;50.838;4.636;2023-06-22T10:14:47;30.02;;;21.52;;
32535;SDS011;18974;50.838;4.636;2023-06-22T10:17:13;31.42;;;22.25;;
32535;SDS011;18974;50.838;4.636;2023-06-22T10:19:38;28.48;;;19.30;;
32535;SDS011;18974;50.838;4.636;2023-06-22T10:22:06;28.73;;;20.30;;
32535;SDS011;18974;50.838;4.636;2023-06-22T10:24:32;31.63;;;20.85;;
32535;SDS011;18974;50.838;4.636;2023-06-22T10:26:57;31.85;;;21.55;;
32535;SDS011;18974;50.838;4.636;2023-06-22T10:29:23;34.05;;;20.63;;
32535;SDS011;18974;50.838;4.636;2023-06-22T10:31:49;30.52;;;20.85;;
32535;SDS011;18974;50.838;4.636;2023-06-22T10:34:14;27.60;;;19.83;;
32535;SDS011;18974;50.838;4.636;2023-06-22T10:36:40;27.73;;;19.02;;
32535;SDS011;18974;50.838;4.636;2023-06-22T10:39:09;25.67;;;18.77;;
32535;SDS011;18974;50.838;4.636;2023-06-22T10:41:35;29.05;;;20.00;;
32535;SDS011;18974;50.838;4.636;2023-06-22T10:44:00;30.45;;;21.50;;
32535;SDS011;18974;50.838;4.636;2023-06-22T10:46:26;29.33;;;21.63;;
32535;SDS011;18974;50.838;4.636;2023-06-22T10:48:52;34.67;;;25.23;;
32535;SDS011;18974;50.838;4.636;2023-06-22T10:51:20;36.45;;;25.33;;
32535;SDS011;18974;50.838;4.636;2023-06-22T10:53:46;35.13;;;25.92;;
32535;SDS011;18974;50.838;4.636;2023-06-22T10:56:11;37.83;;;26.40;;
32535;SDS011;18974;50.838;4.636;2023-06-22T10:58:37;38.80;;;27.63;;
32535;SDS011;18974;50.838;4.636;2023-06-22T11:01:03;41.40;;;26.83;;
32535;SDS011;18974;50.838;4.636;2023-06-22T11:03:28;41.83;;;28.63;;
32535;SDS011;18974;50.838;4.636;2023-06-22T11:05:54;37.33;;;26.45;;
32535;SDS011;18974;50.838;4.636;2023-06-22T11:08:19;37.30;;;26.85;;
32535;SDS011;18974;50.838;4.636;2023-06-22T11:10:45;36.15;;;27.63;;
32535;SDS011;18974;50.838;4.636;2023-06-22T11:13:11;42.30;;;30.42;;
32535;SDS011;18974;50.838;4.636;2023-06-22T11:15:36;43.95;;;29.90;;
32535;SDS011;18974;50.838;4.636;2023-06-22T11:18:02;42.30;;;29.20;;
32535;SDS011;18974;50.838;4.636;2023-06-22T11:20:30;47.60;;;30.35;;
32535;SDS011;18974;50.838;4.636;2023-06-22T11:22:56;43.47;;;31.50;;
32535;SDS011;18974;50.838;4.636;2023-06-22T11:25:21;45.88;;;30.98;;
32535;SDS011;18974;50.838;4.636;2023-06-22T11:27:47;41.45;;;31.48;;
32535;SDS011;18974;50.838;4.636;2023-06-22T11:30:13;44.65;;;31.60;;
32535;SDS011;18974;50.838;4.636;2023-06-22T11:32:38;42.35;;;31.52;;
32535;SDS011;18974;50.838;4.636;2023-06-22T11:35:04;43.78;;;33.50;;
32535;SDS011;18974;50.838;4.636;2023-06-22T11:37:30;44.58;;;32.67;;
32535;SDS011;18974;50.838;4.636;2023-06-22T11:39:55;48.00;;;34.92;;
32535;SDS011;18974;50.838;4.636;2023-06-22T11:42:21;56.20;;;35.85;;
32535;SDS011;18974;50.838;4.636;2023-06-22T11:44:48;51.95;;;37.00;;
32535;SDS011;18974;50.838;4.636;2023-06-22T11:47:14;50.90;;;37.55;;
32535;SDS011;18974;50.838;4.636;2023-06-22T11:49:40;52.92;;;38.05;;
32535;SDS011;18974;50.838;4.636;2023-06-22T11:52:06;54.40;;;39.50;;
32535;SDS011;18974;50.838;4.636;2023-06-22T11:54:32;56.47;;;41.20;;
32535;SDS011;18974;50.838;4.636;2023-06-22T11:56:58;61.38;;;41.78;;
32535;SDS011;18974;50.838;4.636;2023-06-22T11:59:24;59.10;;;43.33;;
32535;SDS011;18974;50.838;4.636;2023-06-22T12:01:50;65.75;;;45.38;;
32535;SDS011;18974;50.838;4.636;2023-06-22T12:04:16;64.50;;;44.80;;
32535;SDS011;18974;50.838;4.636;2023-06-22T12:06:42;66.00;;;45.72;;
32535;SDS011;18974;50.838;4.636;2023-06-22T12:09:08;66.90;;;46.13;;
32535;SDS011;18974;50.838;4.636;2023-06-22T12:11:34;71.25;;;48.58;;
32535;SDS011;18974;50.838;4.636;2023-06-22T12:14:00;70.88;;;47.75;;
32535;SDS011;18974;50.838;4.636;2023-06-22T12:16:28;71.50;;;48.33;;
32535;SDS011;18974;50.838;4.636;2023-06-22T12:18:54;62.55;;;46.70;;
32535;SDS011;18974;50.838;4.636;2023-06-22T12:21:20;61.38;;;45.60;;
32535;SDS011;18974;50.838;4.636;2023-06-22T12:23:45;68.25;;;45.83;;
32535;SDS011;18974;50.838;4.636;2023-06-22T12:26:11;62.05;;;45.30;;
32535;SDS011;18974;50.838;4.636;2023-06-22T12:28:37;68.93;;;44.25;;
32535;SDS011;18974;50.838;4.636;2023-06-22T12:31:02;61.15;;;43.83;;
32535;SDS011;18974;50.838;4.636;2023-06-22T12:33:28;68.90;;;45.50;;
32535;SDS011;18974;50.838;4.636;2023-06-22T12:35:55;64.90;;;44.45;;
32535;SDS011;18974;50.838;4.636;2023-06-22T12:38:21;62.90;;;44.42;;
32535;SDS011;18974;50.838;4.636;2023-06-22T12:40:47;65.93;;;44.75;;
32535;SDS011;18974;50.838;4.636;2023-06-22T12:43:14;69.32;;;45.80;;
32535;SDS011;18974;50.838;4.636;2023-06-22T12:45:40;66.05;;;44.97;;
32535;SDS011;18974;50.838;4.636;2023-06-22T12:48:05;69.15;;;46.08;;
32535;SDS011;18974;50.838;4.636;2023-06-22T12:50:31;63.15;;;44.55;;
32535;SDS011;18974;50.838;4.636;2023-06-22T12:52:57;65.55;;;43.45;;
32535;SDS011;18974;50.838;4.636;2023-06-22T12:55:23;65.82;;;44.97;;
32535;SDS011;18974;50.838;4.636;2023-06-22T12:57:48;71.80;;;47.00;;
32535;SDS011;18974;50.838;4.636;2023-06-22T13:00:14;66.53;;;46.47;;
32535;SDS011;18974;50.838;4.636;2023-06-22T13:02:40;65.72;;;44.65;;
32535;SDS011;18974;50.838;4.636;2023-06-22T13:05:06;66.05;;;45.58;;
32535;SDS011;18974;50.838;4.636;2023-06-22T13:07:31;65.45;;;44.75;;
32535;SDS011;18974;50.838;4.636;2023-06-22T13:09:57;70.80;;;45.47;;
32535;SDS011;18974;50.838;4.636;2023-06-22T13:12:23;62.78;;;44.40;;
32535;SDS011;18974;50.838;4.636;2023-06-22T13:14:48;65.88;;;44.20;;
32535;SDS011;18974;50.838;4.636;2023-06-22T13:17:14;66.55;;;45.17;;
32535;SDS011;18974;50.838;4.636;2023-06-22T13:19:40;61.42;;;44.78;;
32535;SDS011;18974;50.838;4.636;2023-06-22T13:22:09;63.97;;;44.67;;
32535;SDS011;18974;50.838;4.636;2023-06-22T13:25:08;67.68;;;45.22;;
32535;SDS011;18974;50.838;4.636;2023-06-22T13:27:37;75.72;;;49.70;;
32535;SDS011;18974;50.838;4.636;2023-06-22T13:30:04;70.97;;;47.13;;
32535;SDS011;18974;50.838;4.636;2023-06-22T13:32:30;76.00;;;47.15;;
32535;SDS011;18974;50.838;4.636;2023-06-22T13:34:56;73.30;;;50.42;;
32535;SDS011;18974;50.838;4.636;2023-06-22T13:37:21;70.68;;;48.22;;
32535;SDS011;18974;50.838;4.636;2023-06-22T13:39:47;86.22;;;53.60;;
32535;SDS011;18974;50.838;4.636;2023-06-22T13:42:12;82.05;;;52.88;;
32535;SDS011;18974;50.838;4.636;2023-06-22T13:44:38;84.75;;;54.53;;
32535;SDS011;18974;50.838;4.636;2023-06-22T13:47:04;87.55;;;52.60;;
32535;SDS011;18974;50.838;4.636;2023-06-22T13:49:30;80.10;;;52.25;;
32535;SDS011;18974;50.838;4.636;2023-06-22T13:51:55;81.68;;;53.22;;
32535;SDS011;18974;50.838;4.636;2023-06-22T13:54:21;90.85;;;52.85;;
32535;SDS011;18974;50.838;4.636;2023-06-22T13:56:47;75.82;;;51.78;;
32535;SDS011;18974;50.838;4.636;2023-06-22T13:59:12;79.68;;;52.70;;
32535;SDS011;18974;50.838;4.636;2023-06-22T14:01:38;78.22;;;51.83;;
32535;SDS011;18974;50.838;4.636;2023-06-22T14:04:05;79.13;;;51.70;;
32535;SDS011;18974;50.838;4.636;2023-06-22T14:06:30;77.75;;;51.30;;
32535;SDS011;18974;50.838;4.636;2023-06-22T14:08:56;79.35;;;51.60;;
32535;SDS011;18974;50.838;4.636;2023-06-22T14:11:22;80.65;;;51.85;;
32535;SDS011;18974;50.838;4.636;2023-06-22T14:13:47;73.15;;;49.35;;
32535;SDS011;18974;50.838;4.636;2023-06-22T14:16:13;73.90;;;48.78;;
32535;SDS011;18974;50.838;4.636;2023-06-22T14:18:39;66.57;;;47.47;;
32535;SDS011;18974;50.838;4.636;2023-06-22T14:21:04;71.22;;;47.83;;
32535;SDS011;18974;50.838;4.636;2023-06-22T14:23:30;70.40;;;46.58;;
32535;SDS011;18974;50.838;4.636;2023-06-22T14:25:55;73.05;;;47.63;;
32535;SDS011;18974;50.838;4.636;2023-06-22T14:28:21;71.05;;;46.88;;
32535;SDS011;18974;50.838;4.636;2023-06-22T14:30:47;67.15;;;47.10;;